Henshaw, Kentucky
Current Conditions -  °F | °C
As of 4:15 PM on Sunday 25 Jan 2015 (Local Time) from KEHR Reporting Station
Overcast Overcast  
Wind Chill: 36°   Ceiling: 2400
Heat Index: 41°   Visibility: 10mi
Dew Point: 37°   Wind: 7mph
Humidity: 87%   Direction: 210°SSW
Pressure: 29.62"   Gusts: NA
Location:  37.6418°N, 87.8654°W
Report Text: KEHR 252215Z AUTO 21006KT 10SM BKN024 OVC033 05/03 A2962 RMK AO1 P0001
Loading
Personal Weather Stations






























Interactive Weather Map New forecast layout! Learn more

10-Day Weather Forecast

Advertisements
Track Severe Weather on mobile